createdAt,value
2018-12-17T00:01:52.950Z,44.37
2018-12-17T00:04:23.698Z,39.97
2018-12-17T00:10:01.438Z,48.30
2018-12-17T00:12:30.622Z,46.47
2018-12-17T00:14:59.734Z,43.27
2018-12-17T00:17:28.841Z,47.87
2018-12-17T00:19:57.902Z,41.77
2018-12-17T00:22:27.022Z,46.05
2018-12-17T00:24:56.044Z,44.37
2018-12-17T00:27:25.111Z,41.67
2018-12-17T00:29:54.251Z,43.73
2018-12-17T00:32:23.236Z,44.80
2018-12-17T00:34:52.175Z,42.37
2018-12-17T00:37:21.226Z,44.27
2018-12-17T00:39:50.231Z,45.20
2018-12-17T00:42:19.210Z,43.17
2018-12-17T00:44:48.222Z,44.63
2018-12-17T00:47:17.123Z,44.95
2018-12-17T00:49:46.115Z,41.43
2018-12-17T00:52:15.102Z,44.23
2018-12-17T00:54:44.105Z,43.00
2018-12-17T00:57:13.174Z,43.00
2018-12-17T00:59:42.310Z,41.00
2018-12-17T01:02:11.449Z,38.85
2018-12-17T01:04:40.393Z,43.37
2018-12-17T01:07:09.450Z,42.70
2018-12-17T01:09:38.442Z,40.57
2018-12-17T01:12:07.434Z,41.03
2018-12-17T01:14:36.430Z,39.50
2018-12-17T01:17:05.408Z,35.90
2018-12-17T01:19:34.457Z,40.53
2018-12-17T01:22:03.396Z,35.53
2018-12-17T01:24:32.446Z,38.17
2018-12-17T01:27:01.303Z,41.93
2018-12-17T01:29:30.294Z,39.23
2018-12-17T01:31:59.304Z,39.33
2018-12-17T01:34:28.312Z,36.33
2018-12-17T01:36:57.355Z,38.87
2018-12-17T01:39:26.562Z,39.07
2018-12-17T01:41:55.927Z,39.90
2018-12-17T01:44:24.859Z,38.30
2018-12-17T01:46:54.013Z,39.90
2018-12-17T01:49:22.920Z,43.45
2018-12-17T01:51:51.836Z,45.23
2018-12-17T01:54:20.844Z,38.30
2018-12-17T01:56:49.891Z,45.30
2018-12-17T01:59:18.815Z,39.97
2018-12-17T02:01:47.832Z,45.60
2018-12-17T02:04:16.799Z,38.83
2018-12-17T02:06:45.785Z,42.33
2018-12-17T02:09:14.642Z,37.85
2018-12-17T02:11:43.846Z,41.27
2018-12-17T02:14:13.151Z,36.80
2018-12-17T02:16:42.374Z,36.00
2018-12-17T02:19:11.455Z,36.77
2018-12-17T02:21:40.436Z,36.03
2018-12-17T02:24:09.367Z,37.17
2018-12-17T02:26:38.352Z,38.23
2018-12-17T02:29:07.343Z,37.07
2018-12-17T02:31:36.753Z,36.83
2018-12-17T02:34:06.628Z,37.42
2018-12-17T02:36:35.766Z,37.38
2018-12-17T02:39:07.811Z,36.38
2018-12-17T02:41:38.739Z,37.27
2018-12-17T02:44:07.914Z,39.50
2018-12-17T02:46:36.722Z,36.47
2018-12-17T02:49:05.912Z,38.70
2018-12-17T02:51:36.684Z,37.80
2018-12-17T02:54:06.154Z,36.40
2018-12-17T02:56:35.253Z,36.80
2018-12-17T02:59:05.138Z,36.48
2018-12-17T03:01:34.182Z,34.83
2018-12-17T03:04:03.059Z,35.30
2018-12-17T03:06:32.139Z,36.23
2018-12-17T03:09:01.017Z,37.45
2018-12-17T03:11:31.885Z,35.23
2018-12-17T03:14:00.859Z,37.30
2018-12-17T03:16:30.094Z,36.00
2018-12-17T03:18:58.871Z,38.27
2018-12-17T03:21:28.003Z,32.90
2018-12-17T03:23:57.218Z,35.63
2018-12-17T03:26:26.156Z,37.17
2018-12-17T03:28:55.191Z,35.53
2018-12-17T03:31:24.341Z,40.00
2018-12-17T03:33:53.811Z,40.80
2018-12-17T03:36:22.721Z,33.95
2018-12-17T03:38:52.131Z,35.07
2018-12-17T03:41:21.026Z,36.93
2018-12-17T03:43:50.119Z,38.43
2018-12-17T03:46:19.075Z,37.83
2018-12-17T03:48:47.989Z,33.23
2018-12-17T03:51:17.058Z,35.45
2018-12-17T03:53:46.059Z,36.17
2018-12-17T03:56:15.116Z,36.23
2018-12-17T03:58:43.949Z,36.30
2018-12-17T04:01:13.044Z,35.40
2018-12-17T04:03:41.931Z,37.07
2018-12-17T04:06:11.008Z,35.38
2018-12-17T04:08:39.933Z,35.77
2018-12-17T04:11:09.147Z,37.83
2018-12-17T04:13:37.900Z,33.30
2018-12-17T04:16:07.024Z,35.67
2018-12-17T04:18:36.364Z,37.47
2018-12-17T04:21:05.568Z,34.87
2018-12-17T04:23:34.494Z,36.73
2018-12-17T04:26:05.331Z,37.47
2018-12-17T04:28:34.332Z,34.33
2018-12-17T04:31:03.464Z,36.17
2018-12-17T04:33:32.306Z,34.70
2018-12-17T04:36:01.716Z,38.10
2018-12-17T04:38:30.706Z,37.53
2018-12-17T04:40:59.587Z,36.47
2018-12-17T04:43:28.575Z,39.93
2018-12-17T04:45:57.627Z,37.43
2018-12-17T04:48:26.643Z,37.07
2018-12-17T04:50:55.552Z,36.77
2018-12-17T04:53:24.694Z,38.03
2018-12-17T04:55:53.610Z,39.10
2018-12-17T04:58:22.554Z,33.93
2018-12-17T05:00:51.594Z,38.13
2018-12-17T05:03:20.509Z,34.80
2018-12-17T05:05:49.499Z,36.90
2018-12-17T05:08:18.733Z,36.87
2018-12-17T05:10:47.576Z,40.07
2018-12-17T05:13:16.492Z,39.20
2018-12-17T05:15:45.639Z,40.03
2018-12-17T05:18:14.623Z,43.87
2018-12-17T05:20:43.542Z,39.10
2018-12-17T05:23:12.533Z,39.35
2018-12-17T05:25:41.522Z,38.17
2018-12-17T05:28:10.558Z,42.67
2018-12-17T05:30:39.510Z,39.67
2018-12-17T05:33:08.598Z,44.37
2018-12-17T05:35:37.405Z,46.00
2018-12-17T05:38:06.462Z,41.10
2018-12-17T05:40:35.626Z,45.03
2018-12-17T05:43:05.237Z,26.57
2018-12-17T05:45:34.312Z,43.07
2018-12-17T05:48:03.717Z,42.53
2018-12-17T05:50:32.661Z,40.50
2018-12-17T05:53:01.598Z,40.93
2018-12-17T05:55:30.658Z,35.43
2018-12-17T05:57:59.578Z,35.07
2018-12-17T06:00:28.702Z,36.13
2018-12-17T06:02:57.803Z,33.80
2018-12-17T06:05:27.078Z,37.10
2018-12-17T06:07:55.837Z,33.92
2018-12-17T06:10:24.783Z,32.53
2018-12-17T06:12:53.825Z,31.30
2018-12-17T06:15:22.814Z,33.40
2018-12-17T06:17:51.897Z,31.23
2018-12-17T06:20:21.335Z,29.80
2018-12-17T06:22:50.934Z,33.03
2018-12-17T06:25:19.628Z,30.30
2018-12-17T06:27:48.394Z,32.07
2018-12-17T06:30:17.463Z,30.60
2018-12-17T06:32:46.374Z,30.43
2018-12-17T06:35:15.491Z,29.23
2018-12-17T06:37:44.455Z,31.10
2018-12-17T06:40:13.430Z,28.80
2018-12-17T06:42:42.346Z,29.97
2018-12-17T06:45:11.347Z,29.07
2018-12-17T06:47:40.416Z,28.57
2018-12-17T06:50:09.470Z,29.13
2018-12-17T06:52:38.550Z,28.45
2018-12-17T06:55:07.545Z,24.13
2018-12-17T06:57:36.287Z,24.57
2018-12-17T07:00:06.558Z,23.90
2018-12-17T07:02:36.215Z,24.47
2018-12-17T07:05:06.216Z,23.70
2018-12-17T07:07:35.038Z,24.10
2018-12-17T07:10:04.511Z,23.93
2018-12-17T07:12:33.487Z,23.77
2018-12-17T07:15:02.387Z,23.73
2018-12-17T07:17:31.321Z,21.27
2018-12-17T07:20:00.380Z,25.13
2018-12-17T07:22:29.752Z,24.23
2018-12-17T07:24:58.595Z,22.58
2018-12-17T07:27:27.650Z,24.20
2018-12-17T07:29:56.666Z,20.60
2018-12-17T07:32:25.595Z,21.97
2018-12-17T07:34:54.643Z,20.33
2018-12-17T07:37:23.842Z,20.83
2018-12-17T07:39:52.923Z,21.60
2018-12-17T07:42:21.861Z,21.02
2018-12-17T07:44:50.900Z,21.57
2018-12-17T07:47:19.884Z,21.13
2018-12-17T07:49:49.971Z,18.47
2018-12-17T07:52:18.895Z,16.97
2018-12-17T07:54:47.718Z,17.77
2018-12-17T07:57:16.736Z,16.87
2018-12-17T07:59:45.710Z,18.53
2018-12-17T08:02:14.780Z,16.70
2018-12-17T08:04:43.918Z,20.75
2018-12-17T08:07:12.674Z,17.85
2018-12-17T08:09:41.679Z,17.13
2018-12-17T08:12:10.693Z,17.17
2018-12-17T08:14:39.812Z,16.20
2018-12-17T08:17:09.662Z,16.00
2018-12-17T08:19:38.579Z,16.10
2018-12-17T08:22:07.630Z,19.57
2018-12-17T08:24:36.626Z,17.53
2018-12-17T08:27:05.711Z,16.10
2018-12-17T08:29:34.598Z,15.73
2018-12-17T08:32:04.602Z,16.97
2018-12-17T08:34:33.463Z,16.60
2018-12-17T08:37:02.431Z,18.23
2018-12-17T08:39:31.502Z,16.33
2018-12-17T08:42:00.415Z,16.67
2018-12-17T08:44:29.554Z,17.27
2018-12-17T08:46:58.479Z,16.10
2018-12-17T08:49:27.411Z,15.53
2018-12-17T08:51:56.472Z,16.33
2018-12-17T08:54:25.401Z,17.27
2018-12-17T08:56:54.460Z,20.83
2018-12-17T08:59:24.286Z,16.57
2018-12-17T09:01:53.419Z,15.67
2018-12-17T09:04:22.365Z,15.78
2018-12-17T09:06:51.330Z,14.50
2018-12-17T09:09:20.274Z,16.07
2018-12-17T09:11:49.076Z,17.03
2018-12-17T09:14:17.939Z,18.97
2018-12-17T09:16:46.924Z,17.87
2018-12-17T09:19:15.995Z,16.57
2018-12-17T09:21:45.056Z,15.50
2018-12-17T09:24:14.056Z,16.50
2018-12-17T09:26:42.992Z,17.57
2018-12-17T09:29:12.027Z,17.27
2018-12-17T09:31:40.875Z,17.13
2018-12-17T09:34:10.809Z,15.93
2018-12-17T09:36:39.784Z,18.97
2018-12-17T09:39:08.864Z,15.53
2018-12-17T09:41:39.766Z,14.67
2018-12-17T09:44:08.615Z,16.83
2018-12-17T09:46:37.807Z,16.93
2018-12-17T09:49:06.592Z,18.73
2018-12-17T09:51:35.578Z,20.30
2018-12-17T09:54:05.322Z,17.83
2018-12-17T09:56:34.339Z,17.73
2018-12-17T09:59:04.238Z,17.73
2018-12-17T10:01:39.669Z,16.97
2018-12-17T10:04:08.607Z,23.75
2018-12-17T10:06:37.542Z,22.17
2018-12-17T10:09:07.142Z,21.97
2018-12-17T10:11:37.955Z,18.87
2018-12-17T10:14:07.197Z,20.83
2018-12-17T10:16:36.371Z,19.13
2018-12-17T10:19:05.315Z,23.03
2018-12-17T10:21:34.458Z,22.43
2018-12-17T10:24:03.783Z,22.93
2018-12-17T10:26:32.907Z,23.92
2018-12-17T10:29:01.828Z,21.63
2018-12-17T10:31:30.892Z,20.57
2018-12-17T10:33:59.879Z,20.03
2018-12-17T10:36:28.799Z,25.77
2018-12-17T10:38:58.028Z,23.67
2018-12-17T10:41:26.808Z,23.73
2018-12-17T10:43:57.694Z,24.93
2018-12-17T10:46:26.698Z,26.07
2018-12-17T10:48:55.620Z,23.07
2018-12-17T10:51:24.601Z,26.45
2018-12-17T10:53:53.617Z,25.20
2018-12-17T10:56:22.639Z,29.53
2018-12-17T10:58:51.570Z,27.27
2018-12-17T11:01:25.885Z,27.77
2018-12-17T11:04:01.058Z,26.73
2018-12-17T11:06:30.063Z,27.47
2018-12-17T11:08:58.987Z,27.10
2018-12-17T11:11:28.042Z,24.27
2018-12-17T11:13:56.992Z,26.30
2018-12-17T11:16:25.968Z,25.50
2018-12-17T11:18:54.954Z,25.57
2018-12-17T11:21:24.012Z,27.80
2018-12-17T11:23:52.863Z,27.03
2018-12-17T11:26:21.856Z,23.27
2018-12-17T11:28:50.930Z,22.87
2018-12-17T11:31:19.899Z,24.13
2018-12-17T11:33:48.828Z,23.70
2018-12-17T11:36:17.974Z,22.93
2018-12-17T11:38:46.904Z,24.00
2018-12-17T11:41:15.815Z,21.27
2018-12-17T11:43:44.875Z,25.10
2018-12-17T11:46:13.815Z,22.90
2018-12-17T11:48:43.003Z,22.67
2018-12-17T11:51:12.222Z,20.20
2018-12-17T11:53:41.150Z,24.00
2018-12-17T11:56:10.214Z,24.17
2018-12-17T11:58:39.147Z,24.05
2018-12-17T12:01:10.879Z,21.83
2018-12-17T12:03:42.486Z,25.13
2018-12-17T12:06:14.338Z,24.85
2018-12-17T12:08:42.090Z,24.33
2018-12-17T12:11:11.160Z,24.57
2018-12-17T12:13:39.943Z,20.80
2018-12-17T12:16:08.852Z,24.73
2018-12-17T12:18:37.858Z,23.30
2018-12-17T12:21:08.297Z,24.70
2018-12-17T12:23:37.402Z,25.00
2018-12-17T12:26:06.270Z,23.57
